KVLD/VLD METAR and TAF weather

Enter ICAO airport designator
Station Type Date Time Source
KVLD METAR 2018/12/15 03:53 UTC NOAA

KVLD 150353Z 00000KT 6SM RA BR BKN046 OVC055 16/16 A2997 RMK AO2 SLP155 P0003 T01560156


Station Type Date Time Source
KVLD Decoded METAR 2018/12/15 03:53 UTC NOAA

VALDOSTA REGIONAL AIRPORT, GA, United States (KVLD) 30-47N 083-16W
Dec 14, 2018 - 10:53 PM EST / 2018.12.15 0353 UTC
Wind: Calm:0
Visibility: 6 mile(s):0
Sky conditions: overcast
Weather: rain; mist
Precipitation last hour: 0.03 inches
Temperature: 60.1 F (15.6 C)
Dew Point: 60.1 F (15.6 C)
Relative Humidity: 100%
Pressure (altimeter): 29.97 in. Hg (1014 hPa)
ob: KVLD 150353Z 00000KT 6SM RA BR BKN046 OVC055 16/16 A2997 RMK AO2 SLP155 P0003 T01560156
cycle: 4

Station Type Date Time Source
KVLD TAF 2018/12/14 18:22 UTC NOAA

TAF KVLD 141720Z 1418/1518 16009KT P6SM RA OVC008
TEMPO 1418/1420 2SM TSRA SCT008CB OVC012
FM142300 20005KT 6SM -RA OVC012
FM150400 19003KT P6SM -RA BKN035
TEMPO 1508/1512 3SM BR BKN015
FM151400 23007KT P6SM BKN040


Example: see airport list